Rocky Hill, Mississippi
Current Conditions -  °F | °C
As of 8:15 AM on Friday 28 Nov 2014 (Local Time) from KSTF Reporting Station
NA  
Wind Chill: 27°   Ceiling: NA
Heat Index: 32°   Visibility: NA
Dew Point: 30°   Wind: 5mph
Humidity: 93%   Direction: 120°ESE
Pressure: 30.45"   Gusts: NA
Location:  33.4256°N, 88.8438°W
Report Text: KSTF 281415Z AUTO 12004KT 00/M01 A3045 RMK AO2 PWINO
Loading
Personal Weather Stations






























Interactive Weather Map New forecast layout! Learn more

10-Day Weather Forecast

Advertisements
Track Severe Weather on mobile